Time;durP1;ratioP1;P1;durP2;ratioP2;P2;SDS_P1;SDS_P2;PMS_P1;PMS_P2;Temp;Humidity;BMP_temperature;BMP_pressure;BME280_temperature;BME280_humidity;BME280_pressure;Samples;Min_cycle;Max_cycle;Signal;HPM_P1;HPM_P2
2022/03/21 00:00:01;;;;;;;49.43;20.37;;;-1.60;82.10;;;;;;4187218;28;20281;-58
2022/03/21 00:02:03;;;;;;;46.27;21.33;;;-1.60;82.30;;;;;;4190428;28;20291;-66
2022/03/21 00:04:05;;;;;;;45.53;20.60;;;-1.60;82.10;;;;;;4189463;28;20269;-56
2022/03/21 00:06:06;;;;;;;41.93;19.97;;;-1.60;82.70;;;;;;4190734;28;20327;-58
2022/03/21 00:08:08;;;;;;;44.73;20.40;;;-1.70;83.10;;;;;;4182268;28;20292;-59
2022/03/21 00:10:09;;;;;;;45.07;19.53;;;-1.70;82.90;;;;;;4173112;28;20335;-61
2022/03/21 00:12:13;;;;;;;43.73;19.57;;;-1.70;82.80;;;;;;4172409;28;20274;-65
2022/03/21 00:14:14;;;;;;;41.30;19.63;;;-1.70;82.90;;;;;;4174486;28;20320;-64
2022/03/21 00:16:15;;;;;;;49.43;19.83;;;-1.70;82.60;;;;;;4172351;28;21154;-55
2022/03/21 00:18:17;;;;;;;45.10;19.13;;;-1.70;83.10;;;;;;4173623;28;20293;-60
2022/03/21 00:20:19;;;;;;;42.00;18.73;;;-1.70;83.50;;;;;;4173382;28;20754;-57
2022/03/21 00:22:20;;;;;;;43.30;19.00;;;-1.80;83.00;;;;;;4176902;28;20324;-55
2022/03/21 00:24:21;;;;;;;47.30;20.23;;;-1.80;84.00;;;;;;4174714;28;20283;-59
2022/03/21 00:26:22;;;;;;;42.57;19.37;;;-1.80;84.10;;;;;;4172764;28;20294;-56
2022/03/21 00:28:24;;;;;;;39.63;18.73;;;-1.90;84.20;;;;;;4173038;28;20391;-58
2022/03/21 00:30:26;;;;;;;41.07;18.17;;;-1.90;84.30;;;;;;4174161;28;21273;-59
2022/03/21 00:32:29;;;;;;;50.10;19.97;;;-1.90;85.00;;;;;;4173520;28;20795;-56
2022/03/21 00:34:30;;;;;;;48.20;19.77;;;-2.00;85.60;;;;;;4172951;28;20335;-56
2022/03/21 00:36:33;;;;;;;50.70;20.03;;;-2.10;86.30;;;;;;4173442;28;20649;-52
2022/03/21 00:38:37;;;;;;;50.70;20.07;;;-2.20;87.20;;;;;;4172622;28;20347;-55
2022/03/21 00:40:38;;;;;;;46.80;20.47;;;-2.30;87.00;;;;;;4173803;28;20331;-52
2022/03/21 00:42:41;;;;;;;49.57;20.27;;;-2.40;87.50;;;;;;4172846;28;20819;-60
2022/03/21 00:44:42;;;;;;;44.50;19.97;;;-2.40;88.20;;;;;;4174128;28;20320;-53
2022/03/21 00:46:43;;;;;;;42.33;20.27;;;-2.50;88.80;;;;;;4156009;28;20295;-58
2022/03/21 00:48:44;;;;;;;48.67;20.13;;;-2.40;89.30;;;;;;4157030;28;20337;-66
2022/03/21 00:50:46;;;;;;;54.50;22.50;;;-2.40;89.70;;;;;;4162468;28;20774;-56
2022/03/21 00:52:48;;;;;;;57.00;23.90;;;-2.40;90.30;;;;;;4173215;28;20254;-65
2022/03/21 00:54:49;;;;;;;53.73;23.30;;;-2.40;90.30;;;;;;4172978;28;20266;-58
2022/03/21 00:56:50;;;;;;;55.23;23.03;;;-2.50;90.10;;;;;;4173036;28;20694;-57
2022/03/21 00:58:52;;;;;;;49.93;20.80;;;-2.50;90.30;;;;;;4174092;28;20332;-60
2022/03/21 01:00:54;;;;;;;44.17;19.73;;;-2.50;90.60;;;;;;4174856;28;20324;-61
2022/03/21 01:02:56;;;;;;;47.07;20.97;;;-2.50;90.70;;;;;;4176154;28;20266;-66
2022/03/21 01:04:57;;;;;;;48.47;19.67;;;-2.50;90.40;;;;;;4174096;28;20355;-63
2022/03/21 01:06:58;;;;;;;41.83;19.70;;;-2.40;90.50;;;;;;4176347;28;20297;-64
2022/03/21 01:09:00;;;;;;;45.07;20.23;;;-2.40;90.50;;;;;;4175042;28;20662;-53
2022/03/21 01:11:01;;;;;;;44.67;21.03;;;-2.40;90.70;;;;;;4176697;28;20344;-54
2022/03/21 01:13:03;;;;;;;51.63;20.57;;;-2.40;90.80;;;;;;4178761;28;20722;-57
2022/03/21 01:15:04;;;;;;;46.40;19.13;;;-2.40;90.80;;;;;;4192890;28;20766;-61
2022/03/21 01:17:05;;;;;;;44.67;19.90;;;-2.40;90.80;;;;;;4191405;28;20303;-59
2022/03/21 01:19:07;;;;;;;44.27;18.80;;;-2.50;91.10;;;;;;4192918;28;20806;-60
2022/03/21 01:21:08;;;;;;;46.30;19.53;;;-2.50;91.10;;;;;;4182749;28;20285;-63
2022/03/21 01:23:10;;;;;;;42.67;18.47;;;-2.60;91.30;;;;;;4176252;28;20355;-57
2022/03/21 01:25:12;;;;;;;45.78;18.63;;;-2.60;91.30;;;;;;4176038;28;20657;-58
2022/03/21 01:27:13;;;;;;;41.63;20.37;;;-2.70;91.80;;;;;;4175743;28;20521;-58
2022/03/21 01:29:14;;;;;;;41.17;18.63;;;-2.70;91.70;;;;;;4175550;28;20270;-58
2022/03/21 01:31:15;;;;;;;42.47;18.47;;;-2.70;91.80;;;;;;4184645;28;20274;-57
2022/03/21 01:33:16;;;;;;;44.83;18.50;;;-2.70;91.90;;;;;;4192683;28;20307;-62
2022/03/21 01:35:18;;;;;;;42.23;19.07;;;-2.80;92.10;;;;;;4191248;28;20307;-60
2022/03/21 01:37:19;;;;;;;41.43;19.00;;;-2.80;92.20;;;;;;4192730;22;20371;-56
2022/03/21 01:39:20;;;;;;;45.93;19.63;;;-2.80;92.20;;;;;;4174521;28;20278;-55
2022/03/21 01:41:22;;;;;;;45.13;20.23;;;-2.80;92.30;;;;;;4176257;28;20281;-60
2022/03/21 01:43:23;;;;;;;43.43;17.50;;;-2.90;92.00;;;;;;4175053;28;20265;-58
2022/03/21 01:45:28;;;;;;;41.27;18.53;;;-2.90;92.30;;;;;;4175844;28;20269;-61
2022/03/21 01:47:29;;;;;;;43.33;19.33;;;-2.90;92.20;;;;;;4191169;28;20347;-62
2022/03/21 01:49:31;;;;;;;42.45;18.05;;;-2.90;92.70;;;;;;4190083;28;20028;-57
2022/03/21 01:51:35;;;;;;;39.55;17.20;;;-2.90;92.60;;;;;;4175639;28;20070;-65
2022/03/21 01:55:56;;;;;;;42.95;17.73;;;-3.00;92.90;;;;;;4175450;28;20452;-57
2022/03/21 01:58:02;;;;;;;40.50;18.27;;;-3.00;93.00;;;;;;4174610;28;20084;-61
2022/03/21 02:00:05;;;;;;;40.90;17.30;;;-3.00;92.90;;;;;;4175492;28;20324;-65
2022/03/21 02:02:06;;;;;;;43.45;18.70;;;-3.00;93.00;;;;;;4174119;28;20275;-56
2022/03/21 02:04:08;;;;;;;45.75;19.98;;;-3.10;93.30;;;;;;4175662;28;20426;-61
2022/03/21 02:06:10;;;;;;;43.22;18.98;;;-3.00;93.40;;;;;;4184583;28;20086;-58
2022/03/21 02:08:11;;;;;;;45.10;19.53;;;-3.10;93.50;;;;;;4192136;28;20063;-64
2022/03/21 02:10:12;;;;;;;37.35;19.73;;;-3.00;93.60;;;;;;4190212;28;20281;-66
2022/03/21 02:12:13;;;;;;;41.78;17.95;;;-3.10;93.80;;;;;;4183249;28;20102;-58
2022/03/21 02:14:15;;;;;;;43.65;18.45;;;-3.10;93.80;;;;;;4174818;28;20451;-57
2022/03/21 02:16:16;;;;;;;40.65;18.13;;;-3.10;93.90;;;;;;4180515;28;20028;-65
2022/03/21 02:18:18;;;;;;;42.45;17.20;;;-3.00;93.90;;;;;;4190507;28;20090;-60
2022/03/21 02:20:21;;;;;;;42.90;18.23;;;-3.00;93.90;;;;;;4186293;28;20436;-62
2022/03/21 02:22:37;;;;;;;40.40;18.02;;;-3.00;94.10;;;;;;4174413;28;20083;-61
2022/03/21 02:24:58;;;;;;;36.03;16.55;;;-3.10;94.10;;;;;;4174989;28;20087;-56
2022/03/21 02:27:01;;;;;;;40.95;19.50;;;-3.20;94.60;;;;;;4174174;28;20033;-56
2022/03/21 02:29:03;;;;;;;42.90;18.05;;;-3.20;94.20;;;;;;4174823;28;20086;-59
2022/03/21 02:31:05;;;;;;;40.97;17.73;;;-3.20;94.30;;;;;;4173721;28;20037;-55
2022/03/21 02:33:07;;;;;;;39.92;18.20;;;-3.30;94.60;;;;;;4174279;28;20542;-61
2022/03/21 02:35:09;;;;;;;37.33;17.52;;;-3.30;94.70;;;;;;4189105;28;20117;-55
2022/03/21 02:37:14;;;;;;;44.00;17.55;;;-3.30;94.80;;;;;;4190615;28;20048;-65
2022/03/21 02:39:17;;;;;;;44.08;19.00;;;-3.30;95.40;;;;;;4191188;28;20054;-62
2022/03/21 02:41:18;;;;;;;39.10;17.13;;;-3.40;95.30;;;;;;4188869;28;20040;-59
2022/03/21 02:43:19;;;;;;;35.22;17.27;;;-3.40;95.60;;;;;;4190783;28;20288;-63
2022/03/21 02:45:20;;;;;;;39.30;19.05;;;-3.50;95.70;;;;;;4190329;28;20082;-58
2022/03/21 02:47:21;;;;;;;41.35;17.38;;;-3.50;95.80;;;;;;4206573;28;20446;-63
2022/03/21 02:49:23;;;;;;;36.75;17.85;;;-3.50;96.40;;;;;;4190410;28;20030;-63
2022/03/21 02:51:27;;;;;;;47.38;20.13;;;-3.60;96.60;;;;;;4191415;28;20016;-66
2022/03/21 02:53:30;;;;;;;45.45;18.48;;;-3.60;96.40;;;;;;4190378;28;20460;-61
2022/03/21 02:55:32;;;;;;;36.45;16.63;;;-3.60;96.40;;;;;;4185435;28;20025;-63
2022/03/21 02:57:33;;;;;;;32.65;16.50;;;-3.60;96.40;;;;;;4172727;28;20045;-58
2022/03/21 02:59:34;;;;;;;36.90;16.65;;;-3.60;97.00;;;;;;4175341;28;20095;-59
2022/03/21 03:01:36;;;;;;;37.70;16.17;;;-3.60;97.10;;;;;;4173419;28;20055;-63
2022/03/21 03:03:38;;;;;;;38.63;16.17;;;-3.60;97.00;;;;;;4187203;28;20040;-62
2022/03/21 03:05:39;;;;;;;36.78;16.42;;;-3.60;97.20;;;;;;4190056;28;20082;-54
2022/03/21 03:07:40;;;;;;;31.17;15.18;;;-3.60;97.20;;;;;;4206086;28;20082;-55
2022/03/21 03:09:41;;;;;;;34.28;15.13;;;-3.70;97.40;;;;;;4189342;28;20130;-61
2022/03/21 03:11:42;;;;;;;35.47;16.67;;;-3.70;97.20;;;;;;4190073;28;20036;-57
2022/03/21 03:13:43;;;;;;;34.75;15.02;;;-3.70;97.60;;;;;;4190946;28;20036;-58
2022/03/21 03:15:44;;;;;;;38.22;15.68;;;-3.70;97.90;;;;;;4180194;28;20557;-52
2022/03/21 03:17:46;;;;;;;36.83;16.08;;;-3.70;98.40;;;;;;4172944;28;20037;-55
2022/03/21 03:19:47;;;;;;;32.90;15.45;;;-3.80;98.60;;;;;;4173163;28;20059;-55
2022/03/21 03:21:50;;;;;;;33.42;14.27;;;-3.80;98.60;;;;;;4174688;28;20049;-56
2022/03/21 03:23:52;;;;;;;32.13;15.55;;;-3.70;98.80;;;;;;4188466;28;20045;-59
2022/03/21 03:26:01;;;;;;;33.35;14.25;;;-3.80;99.10;;;;;;4190951;28;20028;-55
2022/03/21 03:28:02;;;;;;;32.63;14.07;;;-3.70;98.30;;;;;;4175444;28;20118;-63
2022/03/21 03:30:04;;;;;;;30.38;13.60;;;-3.80;98.00;;;;;;4174177;28;20098;-55
2022/03/21 03:32:06;;;;;;;31.02;13.05;;;-3.70;98.00;;;;;;4172867;28;20067;-56
2022/03/21 03:34:07;;;;;;;31.85;14.88;;;-3.70;98.40;;;;;;4174561;28;20473;-57
2022/03/21 03:36:08;;;;;;;30.20;13.75;;;-3.70;98.40;;;;;;4172782;28;20067;-58
2022/03/21 03:38:09;;;;;;;28.05;14.52;;;-3.70;98.80;;;;;;4173684;28;20099;-58
2022/03/21 03:40:12;;;;;;;30.08;12.80;;;-3.70;98.10;;;;;;4172683;28;20074;-58
2022/03/21 03:42:13;;;;;;;34.78;14.07;;;-3.70;98.30;;;;;;4173501;28;20355;-58
2022/03/21 03:44:16;;;;;;;24.27;13.32;;;-3.70;98.40;;;;;;4173666;28;20040;-58
2022/03/21 03:46:17;;;;;;;28.85;13.00;;;-3.70;98.10;;;;;;4173544;28;20025;-59
2022/03/21 03:48:22;;;;;;;29.83;12.98;;;-3.60;98.30;;;;;;4173701;28;20087;-58
2022/03/21 03:50:23;;;;;;;27.65;12.25;;;-3.70;98.50;;;;;;4173200;28;20037;-60
2022/03/21 03:52:24;;;;;;;28.88;11.27;;;-3.70;98.40;;;;;;4173734;28;20098;-60
2022/03/21 03:54:26;;;;;;;32.95;13.20;;;-3.60;98.30;;;;;;4157221;28;20050;-58
2022/03/21 03:56:27;;;;;;;36.22;14.57;;;-3.60;98.20;;;;;;4157491;28;20457;-67
2022/03/21 03:58:28;;;;;;;28.42;13.65;;;-3.60;98.20;;;;;;4156349;28;20556;-59
2022/03/21 04:00:29;;;;;;;25.95;12.63;;;-3.70;98.70;;;;;;4157523;28;20453;-58
2022/03/21 04:03:44;;;;;;;29.85;13.55;;;-3.70;98.70;;;;;;4172342;28;20489;-55
2022/03/21 04:04:52;;;;;;;;;;;-3.70;98.80;;;;;;4174592;28;20029;-58
2022/03/21 04:06:53;;;;;;;;;;;-3.70;99.90;;;;;;4165296;28;20468;-61
2022/03/21 04:08:54;;;;;;;;;;;-3.70;99.90;;;;;;4157744;28;19916;-56
2022/03/21 04:10:55;;;;;;;;;;;-3.80;99.90;;;;;;4163295;28;20408;-61
2022/03/21 04:12:56;;;;;;;17.60;8.93;;;-3.80;99.90;;;;;;4173798;28;19912;-54
2022/03/21 04:14:57;;;;;;;25.95;10.80;;;-3.80;99.60;;;;;;4172674;28;20432;-56
2022/03/21 04:16:59;;;;;;;24.70;11.63;;;-3.70;99.30;;;;;;4173593;28;20762;-56
2022/03/21 04:19:00;;;;;;;30.27;12.30;;;-3.70;99.00;;;;;;4173445;28;20473;-61
2022/03/21 04:21:01;;;;;;;28.17;12.63;;;-3.60;99.20;;;;;;4171315;28;20041;-58
2022/03/21 04:23:04;;;;;;;33.40;12.25;;;-3.70;98.80;;;;;;4173362;28;20493;-60
2022/03/21 04:25:10;;;;;;;32.75;12.82;;;-3.70;98.70;;;;;;4170541;28;20037;-60
2022/03/21 04:27:11;;;;;;;27.33;12.40;;;-3.70;98.90;;;;;;4172069;28;20049;-56
2022/03/21 04:29:13;;;;;;;30.23;12.05;;;-3.70;98.70;;;;;;4171196;28;20496;-55
2022/03/21 04:31:14;;;;;;;24.55;11.02;;;-3.80;99.00;;;;;;4173348;28;20095;-56
2022/03/21 04:33:15;;;;;;;29.70;11.45;;;-3.80;99.50;;;;;;4172152;28;20095;-58
2022/03/21 04:35:17;;;;;;;25.45;11.23;;;-3.70;99.60;;;;;;4165217;28;20093;-63
2022/03/21 04:37:18;;;;;;;27.05;10.15;;;-3.70;99.90;;;;;;4158611;28;20830;-58
2022/03/21 04:39:19;;;;;;;22.42;10.30;;;-3.70;99.70;;;;;;4159659;28;20131;-59
2022/03/21 04:41:20;;;;;;;21.52;10.05;;;-3.60;98.80;;;;;;4162750;28;20042;-55
2022/03/21 04:43:21;;;;;;;28.27;11.02;;;-3.60;99.20;;;;;;4160242;28;20067;-55
2022/03/21 04:45:22;;;;;;;36.03;13.38;;;-3.50;99.20;;;;;;4159538;28;20562;-54
2022/03/21 04:47:24;;;;;;;22.75;11.10;;;-3.30;98.60;;;;;;4159563;28;20087;-56
2022/03/21 04:49:25;;;;;;;29.73;11.48;;;-3.00;98.50;;;;;;4158829;28;20456;-56
2022/03/21 04:51:26;;;;;;;26.40;12.07;;;-2.70;98.20;;;;;;4159156;28;20056;-52
2022/03/21 04:53:27;;;;;;;34.80;12.45;;;-2.30;97.70;;;;;;4159880;28;20409;-54
2022/03/21 04:55:29;;;;;;;35.67;12.93;;;-2.00;97.00;;;;;;4159564;28;20041;-57
2022/03/21 04:57:30;;;;;;;34.95;14.75;;;-1.70;96.50;;;;;;4175707;28;20990;-54
2022/03/21 04:59:32;;;;;;;34.33;14.90;;;-1.30;96.10;;;;;;4172966;28;20033;-55
2022/03/21 05:01:34;;;;;;;31.53;13.27;;;-1.00;95.50;;;;;;4163403;28;20160;-54
2022/03/21 05:03:35;;;;;;;36.73;13.90;;;-0.70;94.90;;;;;;4160134;28;20282;-54
2022/03/21 05:05:37;;;;;;;37.33;12.63;;;-0.40;94.60;;;;;;4187163;28;20289;-57
2022/03/21 05:07:45;;;;;;;22.63;11.50;;;-0.20;93.60;;;;;;4174786;28;20298;-66
2022/03/21 05:09:47;;;;;;;26.70;11.53;;;0.00;93.30;;;;;;4175303;28;20749;-53
2022/03/21 05:11:49;;;;;;;28.60;12.10;;;0.30;92.30;;;;;;4174482;28;20799;-57
2022/03/21 05:13:50;;;;;;;22.73;10.90;;;0.50;92.50;;;;;;4176350;28;20323;-55
2022/03/21 05:15:52;;;;;;;29.30;11.97;;;0.70;91.90;;;;;;4173075;28;20343;-54
2022/03/21 05:17:53;;;;;;;19.80;9.90;;;1.00;91.60;;;;;;4176337;28;20320;-58
2022/03/21 05:19:54;;;;;;;24.63;10.87;;;1.30;90.80;;;;;;4174321;28;20356;-60
2022/03/21 05:21:55;;;;;;;20.60;10.50;;;1.40;89.60;;;;;;4175850;28;20262;-54
2022/03/21 05:31:12;;;;;;;20.77;9.30;;;1.90;86.40;;;;;;4176210;28;20258;-64
2022/03/21 05:37:53;;;;;;;19.53;9.80;;;3.40;82.80;;;;;;4178555;28;20335;-60
2022/03/21 05:42:14;;;;;;;26.37;11.10;;;3.70;78.70;;;;;;4189454;28;20715;-55
2022/03/21 05:44:15;;;;;;;26.80;10.63;;;4.00;79.40;;;;;;4179116;28;20347;-55
2022/03/21 05:46:17;;;;;;;18.07;10.43;;;4.40;78.40;;;;;;4174494;28;21348;-58
2022/03/21 05:50:39;;;;;;;17.25;9.15;;;4.90;76.50;;;;;;4188376;28;20270;-59
2022/03/21 05:52:40;;;;;;;19.13;10.10;;;5.30;74.80;;;;;;4168977;28;20029;-56
2022/03/21 05:54:41;;;;;;;32.03;13.90;;;5.60;74.30;;;;;;4173678;28;20262;-58
2022/03/21 05:56:43;;;;;;;46.67;24.80;;;6.20;74.40;;;;;;4174149;28;20293;-51
2022/03/21 05:58:45;;;;;;;32.07;16.03;;;6.90;72.90;;;;;;4175294;28;20282;-55
2022/03/21 06:00:46;;;;;;;26.23;14.97;;;7.50;71.40;;;;;;4190624;28;20094;-58
2022/03/21 06:02:49;;;;;;;21.27;12.97;;;7.90;68.70;;;;;;4175540;28;20496;-58
2022/03/21 06:04:50;;;;;;;24.73;12.33;;;8.00;67.10;;;;;;4173207;28;20075;-55
2022/03/21 06:06:51;;;;;;;21.17;10.73;;;8.30;67.10;;;;;;4173630;28;20082;-51
2022/03/21 06:08:52;;;;;;;20.97;10.27;;;8.60;66.30;;;;;;4173243;28;20103;-58
2022/03/21 06:11:03;;;;;;;19.60;11.63;;;8.80;64.30;;;;;;4174973;28;20040;-56
2022/03/21 06:13:08;;;;;;;;;;;9.20;64.00;;;;;;4174190;28;20094;-53
2022/03/21 06:15:10;;;;;;;21.67;10.90;;;9.50;58.50;;;;;;4175158;28;20494;-54
2022/03/21 06:17:11;;;;;;;25.50;12.27;;;9.30;60.60;;;;;;4174064;28;20447;-59
2022/03/21 06:19:12;;;;;;;30.47;15.30;;;8.90;60.10;;;;;;4174879;28;20037;-52
2022/03/21 06:21:13;;;;;;;33.07;15.87;;;8.60;60.70;;;;;;4171939;28;20452;-61
2022/03/21 06:23:14;;;;;;;25.13;12.23;;;8.50;60.30;;;;;;4175062;28;20100;-57
2022/03/21 06:25:16;;;;;;;21.97;12.87;;;8.60;60.00;;;;;;4173893;28;20072;-62
2022/03/21 06:27:17;;;;;;;27.13;13.57;;;8.60;59.90;;;;;;4174916;28;20025;-61
2022/03/21 06:29:18;;;;;;;23.13;12.07;;;8.80;59.70;;;;;;4171899;28;20087;-59
2022/03/21 06:31:19;;;;;;;38.20;18.43;;;9.20;59.20;;;;;;4174718;28;20045;-55
2022/03/21 06:33:23;;;;;;;45.57;22.43;;;9.10;58.70;;;;;;4173323;28;20037;-56
2022/03/21 06:35:24;;;;;;;34.73;17.60;;;9.30;58.30;;;;;;4174231;28;20491;-57
2022/03/21 06:37:25;;;;;;;43.20;20.93;;;9.50;57.90;;;;;;4174232;28;20049;-53
2022/03/21 06:39:26;;;;;;;37.03;19.77;;;9.60;57.50;;;;;;4173598;28;20102;-65
2022/03/21 06:41:27;;;;;;;47.30;19.07;;;9.50;57.10;;;;;;4173781;28;20041;-55
2022/03/21 06:43:29;;;;;;;33.23;15.60;;;9.60;57.10;;;;;;4172887;28;20033;-58
2022/03/21 06:45:30;;;;;;;24.03;12.57;;;9.70;57.20;;;;;;4174274;28;20041;-61
2022/03/21 06:47:31;;;;;;;39.57;21.47;;;9.60;56.70;;;;;;4172783;28;20049;-62
2022/03/21 06:49:32;;;;;;;32.30;15.23;;;9.50;56.30;;;;;;4188727;28;20472;-55
2022/03/21 06:51:34;;;;;;;40.47;19.23;;;9.10;55.90;;;;;;4173170;28;20078;-59
2022/03/21 06:53:35;;;;;;;28.57;15.30;;;8.70;56.30;;;;;;4174225;28;20086;-54
2022/03/21 06:55:36;;;;;;;34.20;16.87;;;8.20;56.90;;;;;;4172389;28;20037;-62
2022/03/21 06:57:38;;;;;;;25.03;14.17;;;8.30;57.20;;;;;;4174036;28;20105;-55
2022/03/21 06:59:39;;;;;;;23.00;12.80;;;8.20;57.00;;;;;;4172766;28;20112;-54
2022/03/21 07:01:40;;;;;;;28.33;14.63;;;8.40;57.20;;;;;;4173771;28;20428;-56
2022/03/21 07:03:41;;;;;;;27.63;14.23;;;8.50;56.60;;;;;;4173032;28;20032;-57
2022/03/21 07:05:43;;;;;;;32.00;15.10;;;8.50;57.00;;;;;;4173294;28;20028;-56
2022/03/21 07:07:44;;;;;;;29.60;13.87;;;8.70;56.70;;;;;;4173190;28;20041;-53
2022/03/21 07:09:45;;;;;;;37.87;17.40;;;9.00;56.40;;;;;;4173720;28;20461;-56
2022/03/21 07:11:47;;;;;;;26.53;13.70;;;9.30;56.50;;;;;;4173381;28;20114;-54
2022/03/21 07:13:48;;;;;;;25.03;11.83;;;9.70;56.20;;;;;;4173048;28;20155;-56
2022/03/21 07:15:50;;;;;;;29.57;15.27;;;10.20;55.60;;;;;;4173959;28;20132;-57
2022/03/21 07:17:55;;;;;;;34.80;15.40;;;10.70;54.90;;;;;;4173155;28;20322;-56
2022/03/21 07:19:56;;;;;;;23.90;11.40;;;11.00;54.30;;;;;;4173385;28;20455;-56
2022/03/21 07:21:57;;;;;;;27.53;11.73;;;10.60;54.00;;;;;;4172667;28;20083;-56
2022/03/21 07:23:58;;;;;;;25.20;11.87;;;10.30;54.40;;;;;;4173995;28;20954;-55
2022/03/21 07:25:59;;;;;;;25.53;12.13;;;10.10;54.40;;;;;;4172417;28;20510;-55
2022/03/21 07:28:01;;;;;;;35.73;14.80;;;9.60;54.70;;;;;;4173812;28;20400;-55
2022/03/21 07:30:04;;;;;;;35.53;17.43;;;9.60;55.30;;;;;;4172552;28;20025;-56
2022/03/21 07:32:05;;;;;;;25.97;12.47;;;9.90;55.40;;;;;;4173471;28;20695;-60
2022/03/21 07:34:07;;;;;;;22.67;10.03;;;10.20;55.10;;;;;;4172505;28;20059;-56
2022/03/21 07:36:10;;;;;;;23.90;10.87;;;10.50;54.40;;;;;;4173023;28;20102;-56
2022/03/21 07:38:11;;;;;;;17.20;10.60;;;10.60;54.30;;;;;;4171892;28;20099;-54
2022/03/21 07:40:13;;;;;;;28.43;16.00;;;10.80;54.10;;;;;;4172984;28;20387;-59
2022/03/21 07:42:16;;;;;;;27.50;14.17;;;11.00;54.00;;;;;;4173356;28;20090;-57
2022/03/21 07:47:17;;;;;;;20.57;10.70;;;11.10;53.70;;;;;;4173531;28;20044;-55
2022/03/21 07:48:58;;;;;;;24.83;13.37;;;11.50;53.10;;;;;;4173620;28;20102;-57
2022/03/21 07:50:59;;;;;;;17.80;10.77;;;11.40;52.50;;;;;;4173078;28;20040;-56
2022/03/21 07:53:01;;;;;;;22.10;11.30;;;10.80;52.30;;;;;;4172292;28;20107;-57
2022/03/21 07:55:03;;;;;;;21.07;9.47;;;10.40;53.10;;;;;;4173338;28;21035;-57
2022/03/21 07:57:04;;;;;;;26.47;12.20;;;10.40;53.00;;;;;;4172040;28;20491;-57
2022/03/21 07:59:06;;;;;;;18.47;10.90;;;10.50;53.30;;;;;;4172957;28;20045;-56
2022/03/21 08:01:07;;;;;;;22.43;11.37;;;10.70;53.20;;;;;;4171760;28;20044;-55
2022/03/21 08:03:11;;;;;;;17.53;9.83;;;11.00;53.20;;;;;;4173537;28;20045;-57
2022/03/21 08:05:13;;;;;;;22.33;8.93;;;10.80;52.50;;;;;;4171868;28;20045;-57
2022/03/21 08:07:15;;;;;;;26.50;14.80;;;10.70;53.10;;;;;;4173427;28;20387;-58
2022/03/21 08:09:16;;;;;;;21.27;10.67;;;11.10;53.00;;;;;;4172320;28;20493;-55
2022/03/21 08:11:17;;;;;;;15.73;9.03;;;11.20;52.30;;;;;;4177162;28;20041;-57
2022/03/21 08:13:19;;;;;;;10.03;6.87;;;10.90;52.50;;;;;;4175402;28;20044;-59
2022/03/21 08:15:20;;;;;;;12.67;7.17;;;10.60;52.40;;;;;;4177044;28;20091;-54
2022/03/21 08:17:21;;;;;;;12.00;7.73;;;10.30;52.40;;;;;;4175433;28;20025;-58
2022/03/21 08:19:24;;;;;;;14.13;8.30;;;10.40;52.50;;;;;;4176272;28;20476;-61
2022/03/21 08:21:25;;;;;;;15.17;8.47;;;9.80;51.80;;;;;;4174218;28;20036;-57
2022/03/21 08:23:26;;;;;;;18.53;8.37;;;9.50;52.70;;;;;;4176122;28;20070;-58
2022/03/21 08:25:27;;;;;;;13.90;7.67;;;9.40;53.10;;;;;;4175921;28;20025;-59
2022/03/21 08:27:32;;;;;;;16.73;8.63;;;9.50;53.00;;;;;;4175186;28;20788;-59
2022/03/21 08:29:33;;;;;;;15.33;7.37;;;9.60;53.20;;;;;;4175787;28;20049;-55
2022/03/21 08:31:35;;;;;;;16.23;7.40;;;10.00;53.30;;;;;;4175233;28;20106;-57
2022/03/21 08:33:36;;;;;;;17.23;8.50;;;10.10;52.50;;;;;;4176503;28;20033;-57
2022/03/21 08:35:38;;;;;;;16.30;9.03;;;9.90;51.80;;;;;;4175307;28;20775;-57
2022/03/21 08:37:40;;;;;;;16.63;8.43;;;10.00;52.30;;;;;;4175873;28;20467;-58
2022/03/21 08:39:41;;;;;;;18.33;9.77;;;10.00;51.80;;;;;;4175373;28;20036;-57
2022/03/21 08:41:42;;;;;;;15.20;9.40;;;9.90;52.20;;;;;;4175941;28;20493;-57
2022/03/21 08:43:43;;;;;;;18.90;8.83;;;9.80;52.20;;;;;;4175179;28;20041;-56
2022/03/21 08:45:44;;;;;;;14.03;7.87;;;9.80;51.90;;;;;;4176406;28;20037;-54
2022/03/21 08:47:47;;;;;;;20.50;9.67;;;9.70;52.30;;;;;;4174966;28;20087;-58
2022/03/21 08:49:48;;;;;;;14.23;8.73;;;9.70;52.60;;;;;;4176283;28;20052;-57
2022/03/21 08:51:50;;;;;;;17.73;8.03;;;9.90;52.90;;;;;;4175270;28;20489;-57
2022/03/21 08:53:51;;;;;;;14.33;7.53;;;10.10;52.40;;;;;;4175497;28;20487;-59
2022/03/21 08:55:52;;;;;;;22.43;8.37;;;10.20;51.40;;;;;;4174963;28;20057;-59
2022/03/21 08:57:53;;;;;;;16.13;7.63;;;9.70;51.40;;;;;;4174957;28;20033;-54
2022/03/21 08:59:55;;;;;;;14.80;7.77;;;9.40;51.90;;;;;;4175870;28;20547;-57
2022/03/21 09:01:56;;;;;;;11.13;6.97;;;9.40;52.30;;;;;;4174620;28;20041;-58
2022/03/21 09:04:00;;;;;;;14.03;7.63;;;9.70;52.80;;;;;;4175850;28;20429;-57
2022/03/21 09:06:01;;;;;;;16.13;7.97;;;10.00;52.20;;;;;;4174957;28;20075;-51
2022/03/21 09:08:03;;;;;;;12.40;7.97;;;10.40;51.80;;;;;;4175822;28;20041;-55
2022/03/21 09:10:05;;;;;;;16.93;8.70;;;10.30;51.10;;;;;;4174665;28;20967;-57
2022/03/21 09:12:07;;;;;;;16.70;8.60;;;10.20;51.80;;;;;;4175633;28;20091;-56
2022/03/21 09:14:08;;;;;;;12.63;7.67;;;10.40;52.70;;;;;;4174564;28;20448;-57
2022/03/21 09:16:09;;;;;;;16.77;8.83;;;10.40;51.30;;;;;;4176039;28;20595;-56
2022/03/21 09:18:11;;;;;;;16.33;8.17;;;10.10;51.40;;;;;;4174528;28;20033;-59
2022/03/21 09:20:14;;;;;;;12.30;7.97;;;10.00;51.50;;;;;;4175948;28;20079;-54
2022/03/21 09:22:15;;;;;;;15.27;8.77;;;10.20;51.70;;;;;;4173896;28;20400;-58
2022/03/21 09:24:16;;;;;;;15.63;9.03;;;9.90;50.80;;;;;;4175020;28;20064;-54
2022/03/21 09:26:17;;;;;;;15.03;8.70;;;9.70;51.20;;;;;;4174356;28;20037;-52
2022/03/21 09:28:18;;;;;;;13.10;8.33;;;9.70;51.40;;;;;;4174757;28;20037;-57
2022/03/21 09:30:20;;;;;;;13.53;8.03;;;9.60;51.20;;;;;;4174848;28;20041;-54
2022/03/21 09:32:21;;;;;;;17.50;9.33;;;9.60;51.60;;;;;;4174557;28;20044;-59
2022/03/21 09:34:22;;;;;;;16.30;9.30;;;9.60;51.90;;;;;;4175353;28;20442;-57
2022/03/21 09:36:23;;;;;;;10.23;7.33;;;9.60;52.00;;;;;;4173741;28;20029;-57
2022/03/21 09:38:25;;;;;;;11.13;7.63;;;9.40;51.70;;;;;;4175351;28;20538;-57
2022/03/21 09:40:28;;;;;;;13.13;7.00;;;9.40;51.80;;;;;;4174129;28;20033;-57
2022/03/21 09:42:30;;;;;;;13.60;7.20;;;9.40;51.80;;;;;;4175066;28;20037;-58
2022/03/21 09:44:31;;;;;;;15.40;8.00;;;9.50;51.90;;;;;;4174720;28;20102;-57
2022/03/21 09:46:33;;;;;;;11.57;7.57;;;9.50;51.90;;;;;;4175653;28;20037;-56
2022/03/21 09:48:35;;;;;;;15.40;7.07;;;9.50;52.00;;;;;;4173578;28;20114;-56
2022/03/21 09:50:40;;;;;;;14.60;7.50;;;9.30;51.70;;;;;;4175114;28;20041;-57
2022/03/21 09:52:42;;;;;;;17.10;8.20;;;9.00;51.90;;;;;;4173677;28;20964;-59
2022/03/21 09:54:43;;;;;;;21.70;10.17;;;8.90;52.40;;;;;;4174889;28;20094;-57
2022/03/21 09:56:44;;;;;;;11.87;7.30;;;9.00;52.40;;;;;;4173672;28;20405;-57
2022/03/21 09:58:46;;;;;;;14.40;7.93;;;9.00;52.00;;;;;;4174370;28;20041;-57
2022/03/21 10:00:49;;;;;;;13.37;7.47;;;8.90;52.20;;;;;;4174299;28;20045;-56
2022/03/21 10:02:50;;;;;;;11.63;6.80;;;8.90;52.90;;;;;;4172870;28;20463;-58
2022/03/21 10:04:52;;;;;;;11.77;7.90;;;8.80;52.60;;;;;;4174039;28;20082;-52
2022/03/21 10:06:59;;;;;;;30.57;13.80;;;8.90;52.50;;;;;;4173716;28;20033;-56
2022/03/21 10:09:11;;;;;;;20.43;11.03;;;8.90;52.00;;;;;;4174405;28;20146;-56
2022/03/21 10:11:13;;;;;;;16.07;8.83;;;8.70;51.90;;;;;;4174286;28;20071;-55
2022/03/21 10:13:14;;;;;;;16.67;9.27;;;8.70;52.40;;;;;;4174450;28;20141;-56
2022/03/21 10:15:15;;;;;;;16.77;8.73;;;8.80;52.50;;;;;;4173829;28;20087;-56
2022/03/21 10:17:25;;;;;;;14.33;8.10;;;8.90;52.10;;;;;;4175036;28;20041;-54
2022/03/21 10:19:27;;;;;;;14.83;7.93;;;9.10;52.00;;;;;;4173795;28;20078;-54
2022/03/21 10:21:30;;;;;;;12.07;6.73;;;9.20;51.90;;;;;;4174560;28;20045;-58
2022/03/21 10:23:34;;;;;;;12.73;7.47;;;9.20;51.50;;;;;;4173433;28;20098;-56
2022/03/21 10:25:35;;;;;;;12.33;7.37;;;9.10;51.60;;;;;;4173913;28;20045;-55
2022/03/21 10:27:37;;;;;;;11.50;7.10;;;9.20;51.90;;;;;;4172746;28;20466;-56
2022/03/21 10:29:53;;;;;;;12.70;6.87;;;9.30;51.80;;;;;;4173821;28;20053;-55
2022/03/21 10:31:54;;;;;;;13.40;6.87;;;9.50;52.00;;;;;;4172055;28;20090;-57
2022/03/21 10:34:04;;;;;;;13.80;7.30;;;9.60;52.10;;;;;;4173256;28;20028;-57
2022/03/21 10:36:05;;;;;;;9.38;6.38;;;9.80;51.30;;;;;;4172916;28;20690;-59
2022/03/21 10:38:06;;;;;;;13.13;6.40;;;9.80;51.50;;;;;;4174420;28;20049;-55
2022/03/21 10:40:20;;;;;;;10.60;6.87;;;9.70;51.20;;;;;;4173027;28;20063;-59
2022/03/21 10:42:22;;;;;;;12.30;7.10;;;9.60;51.40;;;;;;4174247;28;20035;-56
2022/03/21 10:44:24;;;;;;;11.83;6.67;;;9.60;51.70;;;;;;4172711;28;20075;-58
2022/03/21 10:46:25;;;;;;;16.53;7.97;;;9.70;51.60;;;;;;4173356;28;20056;-54